Fahy, Switzerland
Current Conditions -  °F | °C
As of 2:20 PM on Monday 22 Dec 2014 (Local Time) from LSGC Reporting Station
Clear Clear  
Wind Chill: 43°   Ceiling: Unl
Heat Index: 48°   Visibility: 6mi
Dew Point: 48°   Wind: 14mph
Humidity: 100%   Direction: 250°WSW
Pressure: 30.39"   Gusts: NA
Location:  47.42°N, 6.95°E
Report Text: LSGC 221320Z 25012KT 200V280 CAVOK 09/09 Q1029
Loading
Personal Weather Stations






























Interactive Weather Map New forecast layout! Learn more

10-Day Weather Forecast

Advertisements
Track Severe Weather on mobile